sensor_id;sensor_type;location;lat;lon;timestamp;pressure;altitude;pressure_sealevel;temperature;humidity
83488;BME280;73424;49.994;8.184;2024-01-30T00:01:44;101395.88;;;-0.06;96.44
83488;BME280;73424;49.994;8.184;2024-01-30T00:04:09;101393.16;;;-0.04;96.75
83488;BME280;73424;49.994;8.184;2024-01-30T00:06:34;101382.69;;;-0.18;96.49
83488;BME280;73424;49.994;8.184;2024-01-30T00:09:00;101416.91;;;0.07;96.65
83488;BME280;73424;49.994;8.184;2024-01-30T00:11:25;101388.97;;;-0.07;96.51
83488;BME280;73424;49.994;8.184;2024-01-30T00:13:51;101405.78;;;0.04;96.96
83488;BME280;73424;49.994;8.184;2024-01-30T00:16:23;101360.13;;;-0.21;95.94
83488;BME280;73424;49.994;8.184;2024-01-30T00:18:50;101409.50;;;0.14;95.80
83488;BME280;73424;49.994;8.184;2024-01-30T00:21:15;101375.66;;;-0.18;95.73
83488;BME280;73424;49.994;8.184;2024-01-30T00:23:41;101373.94;;;-0.31;96.62
83488;BME280;73424;49.994;8.184;2024-01-30T00:26:06;101409.56;;;-0.15;96.60
83488;BME280;73424;49.994;8.184;2024-01-30T00:28:31;101375.97;;;-0.36;96.02
83488;BME280;73424;49.994;8.184;2024-01-30T00:30:57;101421.94;;;-0.17;96.17
83488;BME280;73424;49.994;8.184;2024-01-30T00:33:22;101372.34;;;-0.48;95.54
83488;BME280;73424;49.994;8.184;2024-01-30T00:35:47;101414.09;;;-0.31;95.75
83488;BME280;73424;49.994;8.184;2024-01-30T00:38:12;101369.72;;;-0.48;96.41
83488;BME280;73424;49.994;8.184;2024-01-30T00:40:38;101370.50;;;-0.46;95.92
83488;BME280;73424;49.994;8.184;2024-01-30T00:43:03;101364.59;;;-0.49;95.94
83488;BME280;73424;49.994;8.184;2024-01-30T00:45:28;101408.09;;;-0.33;95.57
83488;BME280;73424;49.994;8.184;2024-01-30T00:47:53;101394.34;;;-0.50;95.64
83488;BME280;73424;49.994;8.184;2024-01-30T00:50:19;101359.19;;;-0.75;95.96
83488;BME280;73424;49.994;8.184;2024-01-30T00:52:44;101371.16;;;-0.71;96.74
83488;BME280;73424;49.994;8.184;2024-01-30T00:55:10;101386.03;;;-0.57;96.28
83488;BME280;73424;49.994;8.184;2024-01-30T00:57:36;101428.53;;;-0.38;97.11
83488;BME280;73424;49.994;8.184;2024-01-30T01:00:01;101375.00;;;-0.62;97.00
83488;BME280;73424;49.994;8.184;2024-01-30T01:02:26;101407.75;;;-0.41;97.19
83488;BME280;73424;49.994;8.184;2024-01-30T01:04:52;101427.09;;;-0.29;96.83
83488;BME280;73424;49.994;8.184;2024-01-30T01:07:17;101418.41;;;-0.44;95.70
83488;BME280;73424;49.994;8.184;2024-01-30T01:09:42;101404.56;;;-0.46;96.04
83488;BME280;73424;49.994;8.184;2024-01-30T01:12:07;101392.78;;;-0.53;96.33
83488;BME280;73424;49.994;8.184;2024-01-30T01:14:33;101421.59;;;-0.39;96.02
83488;BME280;73424;49.994;8.184;2024-01-30T01:16:58;101363.94;;;-0.67;95.83
83488;BME280;73424;49.994;8.184;2024-01-30T01:19:23;101401.19;;;-0.34;95.96
83488;BME280;73424;49.994;8.184;2024-01-30T01:21:49;101411.88;;;-0.37;96.05
83488;BME280;73424;49.994;8.184;2024-01-30T01:24:14;101412.25;;;-0.43;95.57
83488;BME280;73424;49.994;8.184;2024-01-30T01:26:39;101431.53;;;-0.44;96.00
83488;BME280;73424;49.994;8.184;2024-01-30T01:29:06;101405.03;;;-0.53;96.66
83488;BME280;73424;49.994;8.184;2024-01-30T01:31:36;101339.53;;;-0.96;97.13
83488;BME280;73424;49.994;8.184;2024-01-30T01:34:05;101407.66;;;-0.53;96.54
83488;BME280;73424;49.994;8.184;2024-01-30T01:36:30;101389.19;;;-0.52;96.37
83488;BME280;73424;49.994;8.184;2024-01-30T01:38:56;101415.59;;;-0.41;97.02
83488;BME280;73424;49.994;8.184;2024-01-30T01:41:21;101421.22;;;-0.47;96.66
83488;BME280;73424;49.994;8.184;2024-01-30T01:43:47;101356.19;;;-0.83;96.03
83488;BME280;73424;49.994;8.184;2024-01-30T01:46:12;101404.75;;;-0.49;95.96
83488;BME280;73424;49.994;8.184;2024-01-30T01:48:37;101364.50;;;-0.76;96.60
83488;BME280;73424;49.994;8.184;2024-01-30T01:51:05;101380.31;;;-0.64;96.18
83488;BME280;73424;49.994;8.184;2024-01-30T01:53:30;101405.88;;;-0.53;96.87
83488;BME280;73424;49.994;8.184;2024-01-30T01:55:56;101404.09;;;-0.52;96.41
83488;BME280;73424;49.994;8.184;2024-01-30T01:58:22;101403.72;;;-0.61;96.06
83488;BME280;73424;49.994;8.184;2024-01-30T02:00:49;101405.28;;;-0.58;96.65
83488;BME280;73424;49.994;8.184;2024-01-30T02:03:17;101373.69;;;-0.69;96.38
83488;BME280;73424;49.994;8.184;2024-01-30T02:05:43;101378.19;;;-0.71;96.04
83488;BME280;73424;49.994;8.184;2024-01-30T02:08:09;101369.00;;;-0.78;95.67
83488;BME280;73424;49.994;8.184;2024-01-30T02:10:34;101401.75;;;-0.71;95.67
83488;BME280;73424;49.994;8.184;2024-01-30T02:12:59;101398.47;;;-0.75;96.24
83488;BME280;73424;49.994;8.184;2024-01-30T02:15:25;101357.69;;;-0.93;96.31
83488;BME280;73424;49.994;8.184;2024-01-30T02:17:50;101393.97;;;-0.73;95.55
83488;BME280;73424;49.994;8.184;2024-01-30T02:20:15;101399.03;;;-0.70;96.07
83488;BME280;73424;49.994;8.184;2024-01-30T02:22:41;101369.84;;;-0.92;96.51
83488;BME280;73424;49.994;8.184;2024-01-30T02:25:07;101393.78;;;-0.84;96.36
83488;BME280;73424;49.994;8.184;2024-01-30T02:27:33;101387.91;;;-0.87;95.85
83488;BME280;73424;49.994;8.184;2024-01-30T02:29:59;101369.75;;;-1.04;96.56
83488;BME280;73424;49.994;8.184;2024-01-30T02:32:24;101398.00;;;-0.81;96.17
83488;BME280;73424;49.994;8.184;2024-01-30T02:34:49;101400.72;;;-0.83;96.26
83488;BME280;73424;49.994;8.184;2024-01-30T02:37:14;101397.25;;;-0.83;96.38
83488;BME280;73424;49.994;8.184;2024-01-30T02:39:41;101385.66;;;-0.93;96.19
83488;BME280;73424;49.994;8.184;2024-01-30T02:42:06;101402.03;;;-0.76;96.42
83488;BME280;73424;49.994;8.184;2024-01-30T02:44:32;101361.53;;;-0.98;96.05
83488;BME280;73424;49.994;8.184;2024-01-30T02:46:57;101387.16;;;-0.89;96.46
83488;BME280;73424;49.994;8.184;2024-01-30T02:49:22;101389.59;;;-0.86;96.43
83488;BME280;73424;49.994;8.184;2024-01-30T02:51:47;101412.63;;;-0.77;95.96
83488;BME280;73424;49.994;8.184;2024-01-30T02:54:13;101394.81;;;-0.86;96.18
83488;BME280;73424;49.994;8.184;2024-01-30T02:56:38;101413.47;;;-0.77;96.37
83488;BME280;73424;49.994;8.184;2024-01-30T02:59:03;101409.31;;;-0.67;96.34
83488;BME280;73424;49.994;8.184;2024-01-30T03:01:28;101306.88;;;-1.19;95.53
83488;BME280;73424;49.994;8.184;2024-01-30T03:03:54;101364.78;;;-0.81;95.45
83488;BME280;73424;49.994;8.184;2024-01-30T03:06:19;101402.13;;;-0.63;95.61
83488;BME280;73424;49.994;8.184;2024-01-30T03:08:45;101350.56;;;-1.05;95.50
83488;BME280;73424;49.994;8.184;2024-01-30T03:11:10;101327.63;;;-1.16;96.31
83488;BME280;73424;49.994;8.184;2024-01-30T03:13:36;101404.75;;;-0.77;96.08
83488;BME280;73424;49.994;8.184;2024-01-30T03:16:01;101347.66;;;-1.00;96.40
83488;BME280;73424;49.994;8.184;2024-01-30T03:18:26;101353.19;;;-0.91;96.45
83488;BME280;73424;49.994;8.184;2024-01-30T03:20:52;101388.09;;;-0.62;96.58
83488;BME280;73424;49.994;8.184;2024-01-30T03:23:17;101345.81;;;-0.84;96.12
83488;BME280;73424;49.994;8.184;2024-01-30T03:25:42;101319.88;;;-1.03;95.96
83488;BME280;73424;49.994;8.184;2024-01-30T03:28:07;101367.88;;;-0.60;96.32
83488;BME280;73424;49.994;8.184;2024-01-30T03:30:34;101361.50;;;-0.56;96.35
83488;BME280;73424;49.994;8.184;2024-01-30T03:33:00;101393.75;;;-0.27;95.91
83488;BME280;73424;49.994;8.184;2024-01-30T03:35:25;101389.38;;;-0.27;96.24
83488;BME280;73424;49.994;8.184;2024-01-30T03:37:50;101378.72;;;-0.38;96.27
83488;BME280;73424;49.994;8.184;2024-01-30T03:40:16;101366.00;;;-0.44;95.66
83488;BME280;73424;49.994;8.184;2024-01-30T03:42:41;101375.63;;;-0.44;95.25
83488;BME280;73424;49.994;8.184;2024-01-30T03:45:07;101380.59;;;-0.40;95.85
83488;BME280;73424;49.994;8.184;2024-01-30T03:47:32;101377.97;;;-0.40;95.50
83488;BME280;73424;49.994;8.184;2024-01-30T03:49:57;101395.19;;;-0.50;96.18
83488;BME280;73424;49.994;8.184;2024-01-30T03:52:23;101313.81;;;-0.89;94.99
83488;BME280;73424;49.994;8.184;2024-01-30T03:54:48;101286.72;;;-1.17;94.49
83488;BME280;73424;49.994;8.184;2024-01-30T03:57:14;101394.44;;;-0.66;95.62
83488;BME280;73424;49.994;8.184;2024-01-30T03:59:42;101385.19;;;-0.72;94.74
83488;BME280;73424;49.994;8.184;2024-01-30T04:02:09;101384.53;;;-0.61;95.21
83488;BME280;73424;49.994;8.184;2024-01-30T04:04:35;101350.19;;;-0.99;95.03
83488;BME280;73424;49.994;8.184;2024-01-30T04:07:00;101326.91;;;-1.03;95.07
83488;BME280;73424;49.994;8.184;2024-01-30T04:09:25;101346.00;;;-1.01;94.83
83488;BME280;73424;49.994;8.184;2024-01-30T04:11:51;101382.38;;;-0.97;94.74
83488;BME280;73424;49.994;8.184;2024-01-30T04:14:16;101318.66;;;-1.26;94.96
83488;BME280;73424;49.994;8.184;2024-01-30T04:16:42;101369.75;;;-0.90;95.54
83488;BME280;73424;49.994;8.184;2024-01-30T04:19:07;101383.03;;;-0.79;96.08
83488;BME280;73424;49.994;8.184;2024-01-30T04:21:32;101381.53;;;-0.83;95.56
83488;BME280;73424;49.994;8.184;2024-01-30T04:23:57;101391.66;;;-0.77;95.98
83488;BME280;73424;49.994;8.184;2024-01-30T04:26:24;101339.00;;;-1.01;94.92
83488;BME280;73424;49.994;8.184;2024-01-30T04:28:51;101386.13;;;-0.87;95.13
83488;BME280;73424;49.994;8.184;2024-01-30T04:31:16;101322.88;;;-1.23;95.34
83488;BME280;73424;49.994;8.184;2024-01-30T04:33:41;101351.97;;;-0.99;94.86
83488;BME280;73424;49.994;8.184;2024-01-30T04:36:08;101345.13;;;-1.16;95.54
83488;BME280;73424;49.994;8.184;2024-01-30T04:38:35;101371.22;;;-1.00;95.42
83488;BME280;73424;49.994;8.184;2024-01-30T04:41:00;101308.28;;;-1.41;95.47
83488;BME280;73424;49.994;8.184;2024-01-30T04:43:25;101380.41;;;-0.93;95.86
83488;BME280;73424;49.994;8.184;2024-01-30T04:45:51;101363.38;;;-1.00;95.72
83488;BME280;73424;49.994;8.184;2024-01-30T04:48:16;101352.16;;;-1.17;95.45
83488;BME280;73424;49.994;8.184;2024-01-30T04:50:42;101344.38;;;-1.18;95.57
83488;BME280;73424;49.994;8.184;2024-01-30T04:53:07;101365.44;;;-1.05;95.62
83488;BME280;73424;49.994;8.184;2024-01-30T04:55:33;101363.38;;;-1.00;96.23
83488;BME280;73424;49.994;8.184;2024-01-30T04:57:58;101342.06;;;-1.08;96.51
83488;BME280;73424;49.994;8.184;2024-01-30T05:00:23;101336.06;;;-1.11;96.34
83488;BME280;73424;49.994;8.184;2024-01-30T05:02:48;101354.97;;;-1.05;96.02
83488;BME280;73424;49.994;8.184;2024-01-30T05:05:14;101385.28;;;-0.87;95.97
83488;BME280;73424;49.994;8.184;2024-01-30T05:07:41;101315.03;;;-1.23;95.58
83488;BME280;73424;49.994;8.184;2024-01-30T05:10:06;101363.66;;;-1.05;95.79
83488;BME280;73424;49.994;8.184;2024-01-30T05:12:31;101378.91;;;-0.97;95.93
83488;BME280;73424;49.994;8.184;2024-01-30T05:14:57;101398.47;;;-0.89;95.74
83488;BME280;73424;49.994;8.184;2024-01-30T05:17:22;101358.56;;;-1.22;95.66
83488;BME280;73424;49.994;8.184;2024-01-30T05:19:47;101380.94;;;-1.17;95.31
83488;BME280;73424;49.994;8.184;2024-01-30T05:22:12;101377.66;;;-1.20;95.39
83488;BME280;73424;49.994;8.184;2024-01-30T05:24:41;101375.78;;;-1.18;96.07
83488;BME280;73424;49.994;8.184;2024-01-30T05:27:07;101364.84;;;-1.25;95.56
83488;BME280;73424;49.994;8.184;2024-01-30T05:29:32;101354.06;;;-1.34;95.68
83488;BME280;73424;49.994;8.184;2024-01-30T05:31:58;101398.47;;;-0.89;95.85
83488;BME280;73424;49.994;8.184;2024-01-30T05:34:23;101387.13;;;-1.03;96.06
83488;BME280;73424;49.994;8.184;2024-01-30T05:36:48;101365.97;;;-1.15;96.19
83488;BME280;73424;49.994;8.184;2024-01-30T05:39:14;101357.75;;;-1.08;95.91
83488;BME280;73424;49.994;8.184;2024-01-30T05:41:39;101357.28;;;-1.29;94.93
83488;BME280;73424;49.994;8.184;2024-01-30T05:44:04;101289.97;;;-1.71;95.43
83488;BME280;73424;49.994;8.184;2024-01-30T05:46:30;101403.50;;;-1.00;95.88
83488;BME280;73424;49.994;8.184;2024-01-30T05:48:55;101364.03;;;-1.11;95.28
83488;BME280;73424;49.994;8.184;2024-01-30T05:51:20;101389.25;;;-1.10;95.49
83488;BME280;73424;49.994;8.184;2024-01-30T05:53:46;101255.38;;;-1.90;95.11
83488;BME280;73424;49.994;8.184;2024-01-30T05:56:11;101359.66;;;-1.40;95.30
83488;BME280;73424;49.994;8.184;2024-01-30T05:58:36;101389.66;;;-1.02;95.88
83488;BME280;73424;49.994;8.184;2024-01-30T06:01:06;101342.22;;;-1.26;95.52
83488;BME280;73424;49.994;8.184;2024-01-30T06:03:32;101376.16;;;-1.10;95.40
83488;BME280;73424;49.994;8.184;2024-01-30T06:05:57;101313.28;;;-1.52;94.47
83488;BME280;73424;49.994;8.184;2024-01-30T06:08:23;101402.75;;;-1.02;94.48
83488;BME280;73424;49.994;8.184;2024-01-30T06:10:48;101393.31;;;-1.04;94.81
83488;BME280;73424;49.994;8.184;2024-01-30T06:13:14;101367.44;;;-1.25;94.75
83488;BME280;73424;49.994;8.184;2024-01-30T06:15:39;101404.53;;;-1.02;94.48
83488;BME280;73424;49.994;8.184;2024-01-30T06:18:05;101391.41;;;-1.17;94.59
83488;BME280;73424;49.994;8.184;2024-01-30T06:20:30;101373.16;;;-1.32;95.23
83488;BME280;73424;49.994;8.184;2024-01-30T06:22:56;101407.69;;;-1.12;95.49
83488;BME280;73424;49.994;8.184;2024-01-30T06:25:21;101394.22;;;-1.20;94.83
83488;BME280;73424;49.994;8.184;2024-01-30T06:27:46;101377.34;;;-1.30;94.24
83488;BME280;73424;49.994;8.184;2024-01-30T06:30:12;101369.50;;;-1.44;94.79
83488;BME280;73424;49.994;8.184;2024-01-30T06:32:37;101375.16;;;-1.51;94.53
83488;BME280;73424;49.994;8.184;2024-01-30T06:35:04;101403.72;;;-1.33;94.71
83488;BME280;73424;49.994;8.184;2024-01-30T06:37:31;101411.88;;;-1.23;95.17
83488;BME280;73424;49.994;8.184;2024-01-30T06:39:56;101424.69;;;-1.19;94.88
83488;BME280;73424;49.994;8.184;2024-01-30T06:42:21;101429.38;;;-1.10;94.88
83488;BME280;73424;49.994;8.184;2024-01-30T06:44:47;101371.75;;;-1.38;94.13
83488;BME280;73424;49.994;8.184;2024-01-30T06:47:12;101412.75;;;-1.08;94.45
83488;BME280;73424;49.994;8.184;2024-01-30T06:49:38;101384.66;;;-1.35;94.55
83488;BME280;73424;49.994;8.184;2024-01-30T06:52:05;101395.47;;;-1.41;94.76
83488;BME280;73424;49.994;8.184;2024-01-30T06:54:30;101359.50;;;-1.67;94.85
83488;BME280;73424;49.994;8.184;2024-01-30T06:56:56;101402.97;;;-1.35;94.67
83488;BME280;73424;49.994;8.184;2024-01-30T06:59:21;101392.94;;;-1.42;94.84
83488;BME280;73424;49.994;8.184;2024-01-30T07:01:47;101384.34;;;-1.44;94.71
83488;BME280;73424;49.994;8.184;2024-01-30T07:04:12;101417.19;;;-1.25;94.37
83488;BME280;73424;49.994;8.184;2024-01-30T07:06:37;101426.00;;;-1.26;95.26
83488;BME280;73424;49.994;8.184;2024-01-30T07:09:03;101390.81;;;-1.36;94.92
83488;BME280;73424;49.994;8.184;2024-01-30T07:11:28;101412.94;;;-1.12;94.88
83488;BME280;73424;49.994;8.184;2024-01-30T07:13:54;101397.19;;;-1.26;94.92
83488;BME280;73424;49.994;8.184;2024-01-30T07:16:19;101374.53;;;-1.41;94.46
83488;BME280;73424;49.994;8.184;2024-01-30T07:18:44;101419.84;;;-1.11;94.46
83488;BME280;73424;49.994;8.184;2024-01-30T07:21:24;101413.78;;;-1.11;94.61
83488;BME280;73424;49.994;8.184;2024-01-30T07:23:55;101411.78;;;-1.22;94.97
83488;BME280;73424;49.994;8.184;2024-01-30T07:26:20;101371.16;;;-1.43;95.00
83488;BME280;73424;49.994;8.184;2024-01-30T07:28:45;101421.53;;;-1.10;94.52
83488;BME280;73424;49.994;8.184;2024-01-30T07:31:11;101414.50;;;-1.09;94.95
83488;BME280;73424;49.994;8.184;2024-01-30T07:33:36;101421.34;;;-1.06;94.86
83488;BME280;73424;49.994;8.184;2024-01-30T07:36:01;101301.19;;;-1.69;94.76
83488;BME280;73424;49.994;8.184;2024-01-30T07:38:27;101404.16;;;-1.11;94.61
83488;BME280;73424;49.994;8.184;2024-01-30T07:40:53;101388.22;;;-1.22;94.83
83488;BME280;73424;49.994;8.184;2024-01-30T07:43:19;101350.81;;;-1.38;95.08
83488;BME280;73424;49.994;8.184;2024-01-30T07:45:45;101407.25;;;-0.90;95.01
83488;BME280;73424;49.994;8.184;2024-01-30T07:48:11;101423.81;;;-0.89;94.73
83488;BME280;73424;49.994;8.184;2024-01-30T07:50:36;101398.47;;;-0.89;94.31
83488;BME280;73424;49.994;8.184;2024-01-30T07:53:02;101428.88;;;-0.58;93.93
83488;BME280;73424;49.994;8.184;2024-01-30T07:55:27;101447.53;;;-0.34;94.04
83488;BME280;73424;49.994;8.184;2024-01-30T07:57:54;101446.47;;;-0.18;94.26
83488;BME280;73424;49.994;8.184;2024-01-30T08:00:21;101434.22;;;-0.31;94.28
83488;BME280;73424;49.994;8.184;2024-01-30T08:02:46;101419.16;;;-0.42;94.65
83488;BME280;73424;49.994;8.184;2024-01-30T08:05:11;101430.47;;;-0.13;94.27
83488;BME280;73424;49.994;8.184;2024-01-30T08:07:37;101409.38;;;-0.12;93.93
83488;BME280;73424;49.994;8.184;2024-01-30T08:10:03;101383.72;;;-0.07;94.34
83488;BME280;73424;49.994;8.184;2024-01-30T08:12:28;101433.84;;;0.30;94.22
83488;BME280;73424;49.994;8.184;2024-01-30T08:14:54;101399.34;;;0.22;94.26
83488;BME280;73424;49.994;8.184;2024-01-30T08:17:19;101404.66;;;0.34;94.17
83488;BME280;73424;49.994;8.184;2024-01-30T08:19:44;101447.38;;;0.63;94.43
83488;BME280;73424;49.994;8.184;2024-01-30T08:22:11;101417.56;;;0.64;93.88
83488;BME280;73424;49.994;8.184;2024-01-30T08:24:37;101441.13;;;0.78;94.42
83488;BME280;73424;49.994;8.184;2024-01-30T08:27:03;101428.84;;;0.79;94.62
83488;BME280;73424;49.994;8.184;2024-01-30T08:29:30;101420.34;;;0.88;93.69
83488;BME280;73424;49.994;8.184;2024-01-30T08:31:55;101421.50;;;0.96;94.28
83488;BME280;73424;49.994;8.184;2024-01-30T08:34:20;101419.75;;;1.22;93.90
83488;BME280;73424;49.994;8.184;2024-01-30T08:36:46;101427.41;;;1.50;93.11
83488;BME280;73424;49.994;8.184;2024-01-30T08:39:11;101433.19;;;1.68;93.38
83488;BME280;73424;49.994;8.184;2024-01-30T08:41:37;101386.63;;;1.32;92.67
83488;BME280;73424;49.994;8.184;2024-01-30T08:44:02;101407.78;;;1.31;93.69
83488;BME280;73424;49.994;8.184;2024-01-30T08:46:28;101426.16;;;1.31;93.35
83488;BME280;73424;49.994;8.184;2024-01-30T08:48:53;101440.34;;;1.66;93.16
83488;BME280;73424;49.994;8.184;2024-01-30T08:51:18;101343.41;;;1.24;93.09
83488;BME280;73424;49.994;8.184;2024-01-30T08:53:44;101412.38;;;1.52;93.17
83488;BME280;73424;49.994;8.184;2024-01-30T08:56:09;101381.16;;;1.35;92.79
83488;BME280;73424;49.994;8.184;2024-01-30T08:58:34;101408.16;;;1.50;93.49
83488;BME280;73424;49.994;8.184;2024-01-30T09:01:00;101450.88;;;2.02;92.03
83488;BME280;73424;49.994;8.184;2024-01-30T09:03:25;101422.53;;;2.18;92.26
83488;BME280;73424;49.994;8.184;2024-01-30T09:05:51;101441.81;;;2.43;91.51
83488;BME280;73424;49.994;8.184;2024-01-30T09:08:16;101447.97;;;2.54;91.54
83488;BME280;73424;49.994;8.184;2024-01-30T09:10:41;101422.59;;;2.53;92.31
83488;BME280;73424;49.994;8.184;2024-01-30T09:13:07;101383.09;;;2.30;91.25
83488;BME280;73424;49.994;8.184;2024-01-30T09:15:32;101386.91;;;2.26;90.82
83488;BME280;73424;49.994;8.184;2024-01-30T09:17:57;101440.16;;;2.77;91.86
83488;BME280;73424;49.994;8.184;2024-01-30T09:20:24;101439.09;;;2.79;91.88
83488;BME280;73424;49.994;8.184;2024-01-30T09:22:50;101378.22;;;2.60;91.42
83488;BME280;73424;49.994;8.184;2024-01-30T09:25:18;101349.44;;;2.57;90.54
83488;BME280;73424;49.994;8.184;2024-01-30T09:27:44;101415.47;;;3.12;91.22
83488;BME280;73424;49.994;8.184;2024-01-30T09:30:13;101206.38;;;1.99;89.92
83488;BME280;73424;49.994;8.184;2024-01-30T09:32:44;101302.72;;;2.48;88.94
83488;BME280;73424;49.994;8.184;2024-01-30T09:35:10;101206.75;;;1.95;89.79
83488;BME280;73424;49.994;8.184;2024-01-30T09:37:35;101394.75;;;3.19;90.79
83488;BME280;73424;49.994;8.184;2024-01-30T09:40:01;101371.75;;;3.21;90.39
83488;BME280;73424;49.994;8.184;2024-01-30T09:42:33;101400.91;;;3.42;90.87
83488;BME280;73424;49.994;8.184;2024-01-30T09:45:03;101337.09;;;3.03;91.48
83488;BME280;73424;49.994;8.184;2024-01-30T09:47:40;101378.13;;;3.29;89.81
83488;BME280;73424;49.994;8.184;2024-01-30T09:50:09;101197.63;;;2.34;89.05
83488;BME280;73424;49.994;8.184;2024-01-30T09:52:37;101446.22;;;3.80;89.82
83488;BME280;73424;49.994;8.184;2024-01-30T09:55:04;101320.19;;;3.06;89.33
83488;BME280;73424;49.994;8.184;2024-01-30T09:57:30;101110.78;;;1.77;90.29
83488;BME280;73424;49.994;8.184;2024-01-30T09:59:55;101331.81;;;2.92;90.80
83488;BME280;73424;49.994;8.184;2024-01-30T10:02:21;101400.75;;;3.76;89.88
83488;BME280;73424;49.994;8.184;2024-01-30T10:04:51;101456.16;;;4.21;89.35
83488;BME280;73424;49.994;8.184;2024-01-30T10:07:17;101447.09;;;4.46;88.82
83488;BME280;73424;49.994;8.184;2024-01-30T10:09:42;101412.44;;;4.28;89.03
83488;BME280;73424;49.994;8.184;2024-01-30T10:12:09;101442.78;;;4.45;89.85
83488;BME280;73424;49.994;8.184;2024-01-30T10:14:40;101401.38;;;4.34;88.62
83488;BME280;73424;49.994;8.184;2024-01-30T10:17:08;101443.16;;;4.72;86.93
83488;BME280;73424;49.994;8.184;2024-01-30T10:19:33;101437.59;;;4.75;87.06
83488;BME280;73424;49.994;8.184;2024-01-30T10:22:03;101449.38;;;4.82;85.96
83488;BME280;73424;49.994;8.184;2024-01-30T10:24:28;101410.50;;;4.62;86.25
83488;BME280;73424;49.994;8.184;2024-01-30T10:26:55;101447.41;;;4.84;87.73
83488;BME280;73424;49.994;8.184;2024-01-30T10:29:20;101432.31;;;4.75;86.58
83488;BME280;73424;49.994;8.184;2024-01-30T10:31:46;101410.03;;;4.68;86.68
83488;BME280;73424;49.994;8.184;2024-01-30T10:34:12;101425.69;;;4.80;85.95
83488;BME280;73424;49.994;8.184;2024-01-30T10:36:43;101402.53;;;4.73;86.77
83488;BME280;73424;49.994;8.184;2024-01-30T10:39:12;101410.16;;;4.87;85.45
83488;BME280;73424;49.994;8.184;2024-01-30T10:41:43;101454.94;;;5.20;86.23
83488;BME280;73424;49.994;8.184;2024-01-30T10:44:10;101378.94;;;5.02;85.41
83488;BME280;73424;49.994;8.184;2024-01-30T10:46:37;101423.00;;;5.12;85.32
83488;BME280;73424;49.994;8.184;2024-01-30T10:49:04;101444.34;;;5.20;86.50
83488;BME280;73424;49.994;8.184;2024-01-30T10:51:31;101414.56;;;5.18;86.08
83488;BME280;73424;49.994;8.184;2024-01-30T10:53:56;101420.22;;;5.34;85.11
83488;BME280;73424;49.994;8.184;2024-01-30T10:56:23;101412.97;;;5.36;84.65
83488;BME280;73424;49.994;8.184;2024-01-30T10:58:50;101410.50;;;5.44;84.23
83488;BME280;73424;49.994;8.184;2024-01-30T11:01:16;101403.03;;;5.49;83.83
83488;BME280;73424;49.994;8.184;2024-01-30T11:03:42;101439.91;;;5.72;83.98
83488;BME280;73424;49.994;8.184;2024-01-30T11:06:11;101382.19;;;5.35;84.15
83488;BME280;73424;49.994;8.184;2024-01-30T11:08:39;101423.72;;;5.65;84.06
83488;BME280;73424;49.994;8.184;2024-01-30T11:11:08;101436.44;;;5.71;84.71
83488;BME280;73424;49.994;8.184;2024-01-30T11:13:34;101441.50;;;5.84;84.41
83488;BME280;73424;49.994;8.184;2024-01-30T11:16:05;101427.38;;;5.74;85.44
83488;BME280;73424;49.994;8.184;2024-01-30T11:18:32;101380.97;;;5.39;86.02
83488;BME280;73424;49.994;8.184;2024-01-30T11:20:59;101413.44;;;5.81;84.90
83488;BME280;73424;49.994;8.184;2024-01-30T11:23:26;101409.19;;;5.60;84.17
83488;BME280;73424;49.994;8.184;2024-01-30T11:25:52;101407.31;;;5.71;84.19
83488;BME280;73424;49.994;8.184;2024-01-30T11:28:18;101387.56;;;5.55;84.14
83488;BME280;73424;49.994;8.184;2024-01-30T11:30:44;101372.66;;;5.54;83.68
83488;BME280;73424;49.994;8.184;2024-01-30T11:33:14;101428.16;;;5.65;85.48
83488;BME280;73424;49.994;8.184;2024-01-30T11:35:44;101361.44;;;5.31;85.48
83488;BME280;73424;49.994;8.184;2024-01-30T11:38:10;101413.72;;;5.69;85.00
83488;BME280;73424;49.994;8.184;2024-01-30T11:40:37;101414.25;;;5.42;86.02
83488;BME280;73424;49.994;8.184;2024-01-30T11:43:04;101422.41;;;5.29;86.73
83488;BME280;73424;49.994;8.184;2024-01-30T11:45:30;101423.44;;;5.17;87.49
83488;BME280;73424;49.994;8.184;2024-01-30T11:47:55;101391.50;;;5.30;86.16
83488;BME280;73424;49.994;8.184;2024-01-30T11:50:21;101404.34;;;5.34;85.24
83488;BME280;73424;49.994;8.184;2024-01-30T11:52:47;101384.22;;;5.22;86.04
83488;BME280;73424;49.994;8.184;2024-01-30T11:55:14;101390.53;;;5.31;85.01
83488;BME280;73424;49.994;8.184;2024-01-30T11:57:40;101420.66;;;5.70;84.69
83488;BME280;73424;49.994;8.184;2024-01-30T12:00:05;101349.16;;;5.30;83.94
83488;BME280;73424;49.994;8.184;2024-01-30T12:02:39;101413.94;;;5.66;84.23
83488;BME280;73424;49.994;8.184;2024-01-30T12:05:05;101401.56;;;5.66;84.35
83488;BME280;73424;49.994;8.184;2024-01-30T12:07:32;101341.53;;;5.36;83.91
83488;BME280;73424;49.994;8.184;2024-01-30T12:09:57;101403.00;;;5.80;83.87
83488;BME280;73424;49.994;8.184;2024-01-30T12:12:24;101406.00;;;5.86;83.81
83488;BME280;73424;49.994;8.184;2024-01-30T12:14:50;101360.63;;;5.70;83.54
83488;BME280;73424;49.994;8.184;2024-01-30T12:17:30;101360.75;;;5.78;83.80
83488;BME280;73424;49.994;8.184;2024-01-30T12:22:43;101401.22;;;6.30;82.12
83488;BME280;73424;49.994;8.184;2024-01-30T12:25:10;101392.44;;;6.39;81.98
83488;BME280;73424;49.994;8.184;2024-01-30T12:27:36;101383.50;;;6.49;81.39
83488;BME280;73424;49.994;8.184;2024-01-30T12:30:05;101359.25;;;6.54;81.11
83488;BME280;73424;49.994;8.184;2024-01-30T12:32:31;101351.69;;;6.40;80.99
83488;BME280;73424;49.994;8.184;2024-01-30T12:34:56;101346.94;;;6.43;81.45
83488;BME280;73424;49.994;8.184;2024-01-30T12:37:22;101347.50;;;6.76;80.28
83488;BME280;73424;49.994;8.184;2024-01-30T12:39:49;101368.16;;;6.82;79.98
83488;BME280;73424;49.994;8.184;2024-01-30T12:42:15;101319.47;;;6.54;80.60
83488;BME280;73424;49.994;8.184;2024-01-30T12:44:41;101379.00;;;6.88;80.38
83488;BME280;73424;49.994;8.184;2024-01-30T12:47:09;101373.69;;;7.07;79.96
83488;BME280;73424;49.994;8.184;2024-01-30T12:49:35;101320.44;;;6.63;80.82